createdAt,value
2022-11-28T00:01:54.268Z,22.50
2022-11-28T00:04:22.664Z,21.63
2022-11-28T00:06:51.101Z,25.27
2022-11-28T00:09:21.341Z,23.63
2022-11-28T00:11:50.606Z,23.27
2022-11-28T00:14:21.555Z,25.53
2022-11-28T00:16:50.196Z,25.37
2022-11-28T00:19:18.479Z,22.93
2022-11-28T00:21:46.794Z,24.53
2022-11-28T00:24:15.298Z,24.97
2022-11-28T00:26:44.006Z,23.03
2022-11-28T00:29:12.619Z,22.27
2022-11-28T00:31:44.017Z,27.37
2022-11-28T00:34:15.594Z,25.60
2022-11-28T00:36:47.475Z,22.00
2022-11-28T00:39:17.683Z,23.90
2022-11-28T00:41:46.503Z,24.90
2022-11-28T00:44:14.983Z,23.53
2022-11-28T00:46:44.841Z,22.77
2022-11-28T00:49:14.014Z,21.03
2022-11-28T00:51:42.360Z,23.67
2022-11-28T00:54:11.735Z,24.00
2022-11-28T00:56:41.531Z,23.07
2022-11-28T00:59:09.847Z,26.23
2022-11-28T01:01:41.008Z,23.23
2022-11-28T01:04:13.869Z,21.67
2022-11-28T01:06:44.719Z,23.50
2022-11-28T01:09:17.120Z,24.60
2022-11-28T01:11:46.754Z,26.27
2022-11-28T01:14:15.131Z,22.93
2022-11-28T01:16:43.591Z,21.27
2022-11-28T01:19:13.951Z,23.40
2022-11-28T01:21:42.993Z,22.27
2022-11-28T01:24:11.599Z,22.70
2022-11-28T01:26:41.320Z,22.33
2022-11-28T01:29:12.616Z,22.87
2022-11-28T01:31:41.288Z,22.53
2022-11-28T01:34:09.694Z,23.40
2022-11-28T01:36:39.324Z,21.80
2022-11-28T01:39:07.686Z,23.60
2022-11-28T01:41:35.945Z,24.17
2022-11-28T01:44:09.569Z,21.10
2022-11-28T01:46:38.667Z,25.50
2022-11-28T01:49:16.529Z,25.77
2022-11-28T01:51:50.367Z,25.70
2022-11-28T01:54:22.992Z,25.17
2022-11-28T01:56:57.881Z,23.80
2022-11-28T01:59:29.986Z,22.93
2022-11-28T02:01:58.353Z,25.70
2022-11-28T02:04:29.186Z,25.10
2022-11-28T02:06:58.854Z,26.20
2022-11-28T02:09:27.120Z,26.07
2022-11-28T02:12:21.208Z,27.77
2022-11-28T02:15:11.614Z,22.23
2022-11-28T02:17:57.827Z,26.07
2022-11-28T02:21:06.729Z,25.57
2022-11-28T02:24:14.913Z,25.87
2022-11-28T02:27:27.115Z,23.90
2022-11-28T02:30:21.088Z,25.67
2022-11-28T02:33:15.871Z,23.70
2022-11-28T02:35:57.488Z,25.13
2022-11-28T02:38:40.296Z,25.27
2022-11-28T02:41:19.113Z,23.93
2022-11-28T02:43:59.255Z,24.37
2022-11-28T02:46:38.065Z,25.33
2022-11-28T02:49:11.474Z,25.97
2022-11-28T02:51:43.291Z,24.70
2022-11-28T02:54:14.878Z,22.87
2022-11-28T02:56:49.180Z,22.20
2022-11-28T02:59:47.709Z,22.93
2022-11-28T03:02:21.247Z,23.27
2022-11-28T03:04:59.099Z,23.00
2022-11-28T03:07:47.784Z,21.67
2022-11-28T03:10:28.298Z,21.47
2022-11-28T03:13:11.753Z,23.67
2022-11-28T03:16:02.692Z,21.50
2022-11-28T03:18:35.725Z,22.47
2022-11-28T03:21:11.609Z,22.03
2022-11-28T03:23:53.547Z,17.43
2022-11-28T03:26:31.102Z,19.27
2022-11-28T03:29:06.694Z,17.43
2022-11-28T03:31:41.145Z,17.50
2022-11-28T03:34:17.210Z,16.60
2022-11-28T03:36:51.940Z,16.43
2022-11-28T03:39:25.641Z,15.17
2022-11-28T03:41:59.202Z,15.37
2022-11-28T03:44:31.796Z,15.27
2022-11-28T03:47:03.442Z,15.83
2022-11-28T03:49:36.461Z,14.37
2022-11-28T03:52:10.737Z,14.70
2022-11-28T03:54:44.383Z,15.50
2022-11-28T03:57:17.140Z,17.03
2022-11-28T03:59:49.812Z,18.10
2022-11-28T04:02:25.051Z,17.93
2022-11-28T04:05:01.698Z,17.10
2022-11-28T04:07:40.577Z,17.37
2022-11-28T04:10:16.776Z,15.87
2022-11-28T04:12:55.258Z,19.33
2022-11-28T04:15:34.164Z,20.07
2022-11-28T04:18:11.487Z,19.33
2022-11-28T04:20:46.157Z,22.30
2022-11-28T04:23:20.134Z,19.23
2022-11-28T04:25:56.874Z,19.67
2022-11-28T04:28:28.763Z,18.43
2022-11-28T04:31:00.347Z,19.00
2022-11-28T04:33:33.231Z,17.77
2022-11-28T04:36:02.922Z,17.37
2022-11-28T04:38:34.307Z,16.00
2022-11-28T04:41:07.988Z,16.10
2022-11-28T04:43:41.184Z,15.57
2022-11-28T04:46:14.810Z,15.03
2022-11-28T04:48:43.569Z,17.20
2022-11-28T04:51:19.936Z,15.83
2022-11-28T04:53:57.444Z,14.60
2022-11-28T04:56:33.992Z,13.90
2022-11-28T04:59:04.439Z,17.87
2022-11-28T05:01:37.338Z,15.33
2022-11-28T05:04:11.086Z,14.53
2022-11-28T05:06:39.494Z,17.97
2022-11-28T05:09:11.064Z,15.50
2022-11-28T05:11:39.694Z,16.40
2022-11-28T05:14:08.481Z,15.07
2022-11-28T05:16:36.837Z,18.27
2022-11-28T05:19:05.175Z,15.43
2022-11-28T05:21:33.385Z,14.47
2022-11-28T05:24:01.648Z,17.97
2022-11-28T05:26:32.758Z,16.10
2022-11-28T05:29:01.057Z,15.33
2022-11-28T05:31:30.293Z,15.50
2022-11-28T05:33:58.749Z,13.73
2022-11-28T05:36:26.986Z,15.20
2022-11-28T05:38:55.347Z,14.57
2022-11-28T05:41:26.490Z,13.93
2022-11-28T05:43:57.417Z,14.70
2022-11-28T05:46:26.977Z,15.87
2022-11-28T05:48:55.560Z,13.87
2022-11-28T05:51:24.509Z,15.20
2022-11-28T05:53:52.766Z,14.60
2022-11-28T05:56:23.007Z,14.23
2022-11-28T05:58:51.916Z,13.43
2022-11-28T06:01:24.049Z,14.37
2022-11-28T06:03:58.154Z,12.53
2022-11-28T06:06:28.928Z,12.13
2022-11-28T06:08:57.717Z,14.27
2022-11-28T06:11:28.774Z,12.63
2022-11-28T06:13:57.771Z,15.33
2022-11-28T06:16:29.594Z,17.97
2022-11-28T06:19:00.418Z,53.50
2022-11-28T06:21:30.215Z,16.40
2022-11-28T06:23:59.493Z,13.13
2022-11-28T06:26:30.049Z,14.17
2022-11-28T06:28:58.399Z,17.20
2022-11-28T06:31:30.134Z,12.80
2022-11-28T06:33:59.102Z,13.17
2022-11-28T06:36:28.174Z,13.43
2022-11-28T06:38:56.427Z,13.30
2022-11-28T06:41:24.755Z,14.37
2022-11-28T06:43:53.121Z,14.87
2022-11-28T06:46:22.911Z,12.87
2022-11-28T06:48:54.393Z,15.03
2022-11-28T06:51:22.973Z,13.20
2022-11-28T06:53:51.650Z,12.93
2022-11-28T06:56:21.427Z,12.87
2022-11-28T06:58:55.944Z,13.97
2022-11-28T07:01:27.967Z,13.43
2022-11-28T07:06:52.435Z,12.73
2022-11-28T07:09:21.512Z,12.10
2022-11-28T07:11:49.790Z,17.20
2022-11-28T07:14:18.089Z,24.10
2022-11-28T07:16:49.302Z,27.20
2022-11-28T07:19:22.744Z,16.40
2022-11-28T07:21:51.237Z,17.37
2022-11-28T07:24:19.985Z,15.50
2022-11-28T07:26:48.574Z,14.13
2022-11-28T07:29:18.325Z,15.60
2022-11-28T07:31:46.846Z,11.93
2022-11-28T07:34:15.246Z,13.10
2022-11-28T07:36:44.932Z,11.83
2022-11-28T07:39:17.505Z,13.67
2022-11-28T07:41:45.826Z,12.30
2022-11-28T07:44:17.779Z,11.67
2022-11-28T07:46:48.007Z,16.20
2022-11-28T07:49:16.931Z,30.90
2022-11-28T07:51:47.178Z,14.50
2022-11-28T07:54:15.874Z,22.63
2022-11-28T07:57:12.833Z,14.63
2022-11-28T07:59:32.503Z,74.03
2022-11-28T08:02:01.052Z,37.20
2022-11-28T08:04:29.393Z,31.83
2022-11-28T08:06:59.121Z,15.10
2022-11-28T08:09:27.396Z,19.27
2022-11-28T08:11:55.693Z,11.83
2022-11-28T08:14:24.019Z,11.77
2022-11-28T08:16:52.412Z,11.20
2022-11-28T08:19:24.545Z,12.50
2022-11-28T08:21:53.200Z,10.17
2022-11-28T08:24:22.936Z,10.83
2022-11-28T08:26:51.234Z,12.00
2022-11-28T08:29:19.565Z,11.80
2022-11-28T08:31:47.902Z,13.20
2022-11-28T08:34:16.268Z,11.70
2022-11-28T08:36:44.603Z,11.30
2022-11-28T08:39:28.780Z,10.47
2022-11-28T08:41:59.607Z,11.07
2022-11-28T08:44:30.356Z,9.20
2022-11-28T08:46:58.893Z,10.47
2022-11-28T08:49:27.172Z,11.77
2022-11-28T08:51:55.487Z,12.43
2022-11-28T08:54:23.770Z,15.03
2022-11-28T08:56:52.072Z,11.87
2022-11-28T08:59:21.928Z,13.90
2022-11-28T09:01:50.220Z,11.37
2022-11-28T09:04:19.660Z,13.40
2022-11-28T09:06:48.032Z,10.00
2022-11-28T09:09:16.662Z,12.27
2022-11-28T09:11:44.940Z,10.37
2022-11-28T09:14:13.603Z,14.23
2022-11-28T09:16:43.459Z,13.07
2022-11-28T09:19:11.718Z,12.23
2022-11-28T09:21:40.627Z,12.60
2022-11-28T09:24:10.364Z,10.97
2022-11-28T09:26:38.692Z,11.17
2022-11-28T09:29:07.479Z,10.67
2022-11-28T09:31:35.820Z,9.97
2022-11-28T09:34:05.916Z,11.67
2022-11-28T09:36:34.589Z,9.13
2022-11-28T09:39:03.431Z,25.23
2022-11-28T09:41:52.096Z,10.80
2022-11-28T09:44:25.210Z,11.50
2022-11-28T09:46:59.591Z,10.20
2022-11-28T09:49:40.849Z,9.23
2022-11-28T09:52:29.602Z,10.27
2022-11-28T09:55:12.708Z,8.93
2022-11-28T09:57:46.921Z,9.70
2022-11-28T10:00:21.477Z,8.77
2022-11-28T10:03:18.954Z,8.97
2022-11-28T10:06:01.756Z,9.67
2022-11-28T10:08:39.495Z,10.67
2022-11-28T10:11:20.938Z,9.87
2022-11-28T10:14:08.191Z,12.03
2022-11-28T10:16:51.667Z,9.43
2022-11-28T10:19:53.434Z,9.33
2022-11-28T10:22:24.007Z,9.53
2022-11-28T10:24:56.527Z,8.70
2022-11-28T10:27:30.893Z,7.60
2022-11-28T10:30:03.045Z,9.03
2022-11-28T10:32:36.733Z,24.23
2022-11-28T10:35:11.607Z,45.13
2022-11-28T10:37:41.320Z,18.10
2022-11-28T10:40:24.425Z,73.17
2022-11-28T10:42:58.824Z,67.07
2022-11-28T10:45:35.184Z,131.87
2022-11-28T10:48:39.692Z,56.23
2022-11-28T10:51:24.484Z,36.20
2022-11-28T10:54:11.398Z,16.37
2022-11-28T10:56:52.529Z,11.47
2022-11-28T10:59:33.877Z,15.70
2022-11-28T11:02:21.374Z,12.00
2022-11-28T11:04:49.985Z,10.20
2022-11-28T11:07:29.664Z,8.90
2022-11-28T11:10:09.289Z,17.43
2022-11-28T11:12:37.670Z,11.30
2022-11-28T11:15:25.026Z,9.90
2022-11-28T11:17:53.631Z,9.80
2022-11-28T11:20:38.257Z,9.93
2022-11-28T11:23:17.771Z,34.10
2022-11-28T11:25:54.964Z,15.87
2022-11-28T11:28:42.275Z,11.10
2022-11-28T11:31:21.008Z,11.83
2022-11-28T11:33:53.068Z,20.73
2022-11-28T11:36:27.187Z,10.47
2022-11-28T11:39:18.006Z,18.23
2022-11-28T11:41:49.687Z,12.63
2022-11-28T11:44:30.867Z,9.83
2022-11-28T11:47:03.568Z,11.80
2022-11-28T11:49:34.625Z,10.57
2022-11-28T11:52:05.964Z,12.30
2022-11-28T11:54:34.623Z,13.77
2022-11-28T11:57:31.495Z,15.60
2022-11-28T11:59:58.173Z,11.27
2022-11-28T12:02:32.672Z,25.43
2022-11-28T12:05:07.068Z,10.33
2022-11-28T12:07:47.194Z,9.90
2022-11-28T12:10:21.072Z,16.47
2022-11-28T12:12:50.866Z,12.93
2022-11-28T12:15:27.659Z,9.77
2022-11-28T12:18:15.198Z,10.43
2022-11-28T12:20:59.111Z,9.43
2022-11-28T12:23:46.309Z,9.30
2022-11-28T12:26:23.403Z,9.00
2022-11-28T12:29:09.571Z,9.77
2022-11-28T12:31:48.748Z,11.10
2022-11-28T12:34:35.228Z,10.13
2022-11-28T12:37:12.377Z,7.57
2022-11-28T12:39:54.517Z,8.97
2022-11-28T12:42:47.551Z,9.60
2022-11-28T12:45:34.390Z,7.93
2022-11-28T12:48:17.449Z,10.47
2022-11-28T12:50:49.938Z,6.47
2022-11-28T12:53:42.592Z,10.37
2022-11-28T12:56:34.572Z,10.77
2022-11-28T12:59:11.655Z,11.90
2022-11-28T13:01:57.729Z,13.63
2022-11-28T13:05:12.326Z,11.40
2022-11-28T13:07:55.417Z,11.77
2022-11-28T13:10:30.174Z,13.47
2022-11-28T13:13:02.506Z,17.67
2022-11-28T13:15:51.474Z,11.10
2022-11-28T13:18:38.225Z,13.27
2022-11-28T13:21:20.909Z,13.07
2022-11-28T13:24:02.319Z,12.40
2022-11-28T13:26:44.752Z,9.40
2022-11-28T13:29:26.449Z,9.10
2022-11-28T13:32:03.698Z,9.43
2022-11-28T13:34:34.205Z,9.97
2022-11-28T13:40:07.702Z,8.33
2022-11-28T13:45:34.331Z,11.67
2022-11-28T13:49:14.569Z,39.37
2022-11-28T13:51:43.778Z,42.10
2022-11-28T13:54:46.139Z,21.20
2022-11-28T13:57:28.384Z,18.33
2022-11-28T14:00:22.528Z,15.90
2022-11-28T14:02:54.707Z,14.80
2022-11-28T14:05:33.115Z,16.30
2022-11-28T14:08:02.370Z,17.37
2022-11-28T14:10:48.327Z,13.20
2022-11-28T14:13:47.537Z,43.07
2022-11-28T14:16:33.761Z,27.60
2022-11-28T14:19:16.480Z,20.47
2022-11-28T14:22:00.239Z,15.87
2022-11-28T14:24:53.117Z,15.73
2022-11-28T14:27:24.790Z,12.53
2022-11-28T14:29:57.137Z,14.67
2022-11-28T14:32:34.307Z,16.97
2022-11-28T14:35:05.044Z,20.07
2022-11-28T14:37:52.848Z,17.60
2022-11-28T14:41:09.100Z,16.23
2022-11-28T14:43:44.613Z,13.77
2022-11-28T14:46:29.199Z,16.10
2022-11-28T14:49:22.199Z,15.17
2022-11-28T14:52:41.859Z,15.00
2022-11-28T14:55:22.116Z,17.80
2022-11-28T14:57:58.541Z,17.90
2022-11-28T15:00:30.057Z,22.17
2022-11-28T15:03:17.919Z,16.73
2022-11-28T15:05:48.044Z,30.17
2022-11-28T15:09:01.092Z,18.13
2022-11-28T15:12:04.972Z,106.47
2022-11-28T15:14:35.657Z,21.20
2022-11-28T15:17:11.416Z,50.77
2022-11-28T15:19:46.164Z,24.97
2022-11-28T15:22:31.080Z,41.23
2022-11-28T15:25:00.293Z,52.53
2022-11-28T15:27:30.796Z,46.00
2022-11-28T15:30:01.574Z,48.90
2022-11-28T15:32:32.101Z,41.30
2022-11-28T15:35:12.265Z,39.50
2022-11-28T15:37:48.374Z,47.87
2022-11-28T15:40:21.614Z,56.43
2022-11-28T15:42:52.171Z,72.37
2022-11-28T15:45:26.368Z,64.63
2022-11-28T15:47:57.560Z,43.93
2022-11-28T15:50:29.372Z,33.67
2022-11-28T15:52:59.995Z,73.07
2022-11-28T15:55:32.423Z,42.27
2022-11-28T15:58:23.561Z,84.73
2022-11-28T16:00:58.912Z,70.70
2022-11-28T16:03:32.128Z,64.27
2022-11-28T16:06:01.607Z,91.27
2022-11-28T16:08:36.658Z,76.30
2022-11-28T16:11:07.476Z,41.57
2022-11-28T16:13:39.551Z,38.37
2022-11-28T16:16:14.196Z,31.77
2022-11-28T16:18:46.589Z,32.30
2022-11-28T16:21:15.613Z,55.63
2022-11-28T16:23:44.161Z,53.77
2022-11-28T16:26:26.220Z,44.53
2022-11-28T16:29:03.518Z,34.80
2022-11-28T16:31:32.282Z,38.77
2022-11-28T16:34:02.714Z,54.63
2022-11-28T16:36:35.748Z,51.67
2022-11-28T16:39:14.384Z,59.17
2022-11-28T16:41:52.012Z,34.07
2022-11-28T16:44:26.194Z,43.20
2022-11-28T16:46:56.841Z,50.77
2022-11-28T16:49:36.591Z,38.60
2022-11-28T16:52:47.596Z,47.57
2022-11-28T16:55:44.191Z,40.73
2022-11-28T16:58:19.645Z,38.43
2022-11-28T17:01:01.515Z,52.87
2022-11-28T17:03:49.206Z,58.93
2022-11-28T17:06:28.571Z,115.50
2022-11-28T17:08:57.530Z,113.80
2022-11-28T17:11:29.767Z,90.20
2022-11-28T17:13:59.583Z,38.07
2022-11-28T17:16:33.307Z,37.30
2022-11-28T17:19:01.817Z,24.20
2022-11-28T17:21:35.880Z,25.40
2022-11-28T17:24:04.319Z,27.77
2022-11-28T17:26:32.578Z,28.00
2022-11-28T17:29:01.055Z,41.60
2022-11-28T17:31:30.707Z,32.00
2022-11-28T17:33:58.972Z,24.77
2022-11-28T17:36:27.213Z,28.20
2022-11-28T17:38:58.739Z,41.37
2022-11-28T17:41:29.267Z,44.90
2022-11-28T17:43:57.554Z,58.10
2022-11-28T17:46:27.044Z,40.77
2022-11-28T17:48:57.705Z,29.47
2022-11-28T17:51:26.937Z,32.07
2022-11-28T17:53:55.536Z,34.63
2022-11-28T17:56:24.118Z,25.83
2022-11-28T17:58:52.550Z,20.27
2022-11-28T18:01:26.427Z,35.87
2022-11-28T18:04:00.954Z,21.20
2022-11-28T18:06:29.266Z,19.10
2022-11-28T18:09:00.623Z,17.63
2022-11-28T18:11:30.261Z,29.53
2022-11-28T18:13:59.253Z,24.03
2022-11-28T18:16:27.671Z,19.07
2022-11-28T18:18:56.207Z,21.67
2022-11-28T18:21:27.076Z,20.33
2022-11-28T18:23:57.097Z,19.93
2022-11-28T18:26:26.759Z,25.93
2022-11-28T18:28:55.964Z,21.70
2022-11-28T18:31:27.389Z,16.67
2022-11-28T18:34:01.642Z,23.23
2022-11-28T18:36:34.783Z,20.43
2022-11-28T18:39:06.582Z,21.67
2022-11-28T18:41:35.128Z,21.13
2022-11-28T18:44:05.933Z,20.60
2022-11-28T18:46:35.718Z,20.57
2022-11-28T18:49:04.271Z,24.23
2022-11-28T18:51:36.725Z,23.53
2022-11-28T18:54:07.142Z,28.53
2022-11-28T18:56:36.772Z,22.27
2022-11-28T18:59:06.825Z,19.97
2022-11-28T19:01:36.372Z,21.63
2022-11-28T19:04:29.585Z,21.37
2022-11-28T19:07:06.810Z,23.37
2022-11-28T19:09:35.102Z,24.17
2022-11-28T19:12:03.794Z,20.37
2022-11-28T19:14:32.510Z,23.07
2022-11-28T19:17:02.016Z,21.80
2022-11-28T19:19:32.175Z,21.30
2022-11-28T19:22:00.362Z,20.83
2022-11-28T19:24:31.700Z,19.47
2022-11-28T19:26:59.977Z,19.93
2022-11-28T19:29:28.802Z,20.37
2022-11-28T19:31:57.119Z,23.10
2022-11-28T19:34:25.790Z,21.17
2022-11-28T19:36:55.370Z,23.53
2022-11-28T19:39:25.876Z,22.17
2022-11-28T19:41:57.147Z,24.93
2022-11-28T19:44:28.855Z,33.60
2022-11-28T19:46:57.330Z,33.73
2022-11-28T19:49:26.343Z,90.17
2022-11-28T19:51:55.441Z,98.90
2022-11-28T19:54:24.028Z,63.43
2022-11-28T19:56:55.912Z,89.67
2022-11-28T19:59:24.226Z,103.70
2022-11-28T20:01:53.870Z,58.80
2022-11-28T20:04:23.554Z,51.43
2022-11-28T20:06:51.853Z,35.03
2022-11-28T20:09:20.127Z,29.77
2022-11-28T20:11:48.864Z,26.87
2022-11-28T20:14:20.689Z,29.67
2022-11-28T20:16:49.251Z,24.93
2022-11-28T20:19:18.305Z,22.60
2022-11-28T20:21:47.139Z,22.60
2022-11-28T20:24:16.770Z,22.07
2022-11-28T20:26:47.439Z,22.30
2022-11-28T20:29:19.813Z,22.67
2022-11-28T20:31:50.683Z,27.83
2022-11-28T20:34:20.116Z,23.60
2022-11-28T20:36:53.554Z,20.83
2022-11-28T20:39:22.303Z,25.40
2022-11-28T20:41:50.626Z,20.03
2022-11-28T20:44:21.051Z,23.47
2022-11-28T20:46:50.028Z,21.10
2022-11-28T20:49:19.051Z,21.53
2022-11-28T20:51:47.785Z,20.70
2022-11-28T20:54:16.214Z,21.53
2022-11-28T20:57:19.599Z,20.47
2022-11-28T20:59:34.949Z,23.53
2022-11-28T21:02:03.277Z,20.73
2022-11-28T21:04:32.705Z,22.50
2022-11-28T21:07:01.128Z,26.03
2022-11-28T21:09:29.556Z,48.73
2022-11-28T21:11:59.148Z,37.97
2022-11-28T21:14:29.342Z,33.40
2022-11-28T21:16:59.835Z,34.43
2022-11-28T21:19:28.815Z,37.57
2022-11-28T21:21:57.097Z,27.53
2022-11-28T21:24:25.398Z,20.20
2022-11-28T21:26:54.816Z,22.20
2022-11-28T21:29:24.965Z,20.47
2022-11-28T21:31:54.165Z,20.27
2022-11-28T21:34:23.911Z,25.80
2022-11-28T21:36:52.246Z,25.83
2022-11-28T21:39:22.473Z,33.27
2022-11-28T21:41:51.997Z,26.27
2022-11-28T21:44:20.686Z,22.37
2022-11-28T21:46:50.452Z,27.77
2022-11-28T21:49:19.019Z,24.77
2022-11-28T21:51:48.668Z,22.63
2022-11-28T21:54:17.305Z,20.47
2022-11-28T21:56:46.770Z,23.97
2022-11-28T21:59:15.350Z,18.70
2022-11-28T22:01:44.319Z,20.60
2022-11-28T22:04:12.748Z,16.73
2022-11-28T22:06:41.417Z,19.70
2022-11-28T22:09:11.111Z,17.53
2022-11-28T22:11:40.984Z,20.13
2022-11-28T22:14:13.223Z,18.10
2022-11-28T22:16:41.498Z,19.30
2022-11-28T22:19:10.563Z,18.37
2022-11-28T22:21:55.353Z,24.47
2022-11-28T22:24:26.313Z,29.40
2022-11-28T22:26:56.335Z,21.07
2022-11-28T22:29:25.480Z,20.10
2022-11-28T22:31:55.408Z,21.90
2022-11-28T22:34:24.657Z,22.93
2022-11-28T22:36:53.021Z,28.93
2022-11-28T22:39:22.138Z,22.87
2022-11-28T22:41:52.044Z,19.37
2022-11-28T22:44:22.079Z,18.00
2022-11-28T22:46:50.792Z,18.47
2022-11-28T22:49:20.061Z,17.27
2022-11-28T22:51:49.081Z,21.60
2022-11-28T22:54:17.643Z,24.23
2022-11-28T22:56:45.911Z,27.87
2022-11-28T22:59:17.478Z,33.80
2022-11-28T23:01:45.872Z,33.97
2022-11-28T23:04:16.151Z,26.97
2022-11-28T23:06:45.220Z,25.23
2022-11-28T23:09:15.013Z,34.63
2022-11-28T23:11:44.565Z,28.47
2022-11-28T23:14:15.295Z,25.93
2022-11-28T23:16:45.872Z,23.77
2022-11-28T23:19:18.326Z,18.53
2022-11-28T23:21:49.694Z,19.23
2022-11-28T23:24:22.295Z,20.47
2022-11-28T23:26:52.448Z,21.57
2022-11-28T23:29:22.229Z,22.03
2022-11-28T23:31:50.833Z,19.60
2022-11-28T23:34:19.238Z,19.80
2022-11-28T23:36:49.301Z,21.10
2022-11-28T23:39:20.271Z,18.87
2022-11-28T23:41:50.038Z,19.70
2022-11-28T23:44:21.492Z,19.07
2022-11-28T23:46:50.233Z,18.37
2022-11-28T23:49:19.070Z,16.57
2022-11-28T23:51:47.362Z,18.30
2022-11-28T23:54:15.650Z,17.60
2022-11-28T23:56:44.485Z,92.33
2022-11-28T23:59:13.488Z,40.80
